Time,TemperatureF,DewpointF,PressureIn,WindDirection,WindDirectionDegrees,WindSpeedMPH,WindSpeedGustMPH,Humidity,HourlyPrecipIn,Conditions,Clouds,dailyrainin,SolarRadiationWatts/m^2,SoftwareType,DateUTC
2013-02-22 00:01:00,48.0,38.0,-100.00,North,352,7.0,16.0,67,0.00,,,0.14,0.000000,,2013-02-22 06:01:00,
2013-02-22 00:32:00,46.0,37.0,-100.00,North,351,9.0,14.0,70,0.00,,,0.14,0.000000,,2013-02-22 06:32:00,
2013-02-22 00:42:00,46.0,37.0,-100.00,North,351,9.0,14.0,70,0.00,,,0.14,0.000000,,2013-02-22 06:42:00,
2013-02-22 00:52:00,46.0,37.0,-100.00,North,351,9.0,14.0,70,0.00,,,0.14,0.000000,,2013-02-22 06:52:00,
2013-02-22 01:01:00,46.0,37.0,-100.00,North,351,9.0,14.0,70,0.00,,,0.14,0.000000,,2013-02-22 07:01:00,
2013-02-22 01:32:00,44.0,36.0,-100.00,NNE,12,7.0,14.0,72,0.00,,,0.14,0.000000,,2013-02-22 07:32:00,
2013-02-22 01:42:00,44.0,36.0,-100.00,NNE,12,7.0,14.0,72,0.00,,,0.14,0.000000,,2013-02-22 07:42:00,
2013-02-22 01:52:00,44.0,36.0,-100.00,NNE,12,7.0,14.0,72,0.00,,,0.14,0.000000,,2013-02-22 07:52:00,
2013-02-22 02:01:00,44.0,36.0,-100.00,NNE,12,7.0,14.0,72,0.00,,,0.14,0.000000,,2013-02-22 08:01:00,
2013-02-22 02:32:00,42.0,34.0,-100.00,NNW,346,9.0,15.0,73,0.00,,,0.14,0.000000,,2013-02-22 08:32:00,
2013-02-22 02:42:00,42.0,34.0,-100.00,NNW,346,9.0,15.0,73,0.00,,,0.14,0.000000,,2013-02-22 08:42:00,
2013-02-22 02:52:00,42.0,34.0,-100.00,NNW,346,9.0,15.0,73,0.00,,,0.14,0.000000,,2013-02-22 08:52:00,
2013-02-22 03:03:00,42.0,34.0,-100.00,NNW,346,9.0,15.0,73,0.00,,,0.14,0.000000,,2013-02-22 09:03:00,
2013-02-22 03:32:00,39.0,32.0,-100.00,NNW,333,12.0,17.0,77,0.00,,,0.13,0.000000,,2013-02-22 09:32:00,
2013-02-22 03:42:00,39.0,32.0,-100.00,NNW,333,12.0,17.0,77,0.00,,,0.13,0.000000,,2013-02-22 09:42:00,
2013-02-22 03:52:00,39.0,32.0,-100.00,NNW,333,12.0,17.0,77,0.00,,,0.13,0.000000,,2013-02-22 09:52:00,
2013-02-22 04:01:00,39.0,32.0,-100.00,NNW,333,12.0,17.0,77,0.00,,,0.13,0.000000,,2013-02-22 10:01:00,
2013-02-22 04:32:00,35.0,28.0,-100.00,NNW,344,8.0,17.0,75,0.00,,,0.12,0.000000,,2013-02-22 10:32:00,
2013-02-22 04:42:00,35.0,28.0,-100.00,NNW,344,8.0,17.0,75,0.00,,,0.12,0.000000,,2013-02-22 10:42:00,
2013-02-22 04:52:00,35.0,28.0,-100.00,NNW,344,8.0,17.0,75,0.00,,,0.12,0.000000,,2013-02-22 10:52:00,
2013-02-22 05:01:00,35.0,28.0,-100.00,NNW,344,8.0,17.0,75,0.00,,,0.12,0.000000,,2013-02-22 11:01:00,
2013-02-22 05:32:00,35.0,27.0,-100.00,NW,323,7.0,15.0,72,0.00,,,0.12,0.000000,,2013-02-22 11:32:00,
2013-02-22 05:42:00,35.0,27.0,-100.00,NW,323,7.0,15.0,72,0.00,,,0.12,0.000000,,2013-02-22 11:42:00,
2013-02-22 05:52:00,35.0,27.0,-100.00,NW,323,7.0,15.0,72,0.00,,,0.12,0.000000,,2013-02-22 11:52:00,
2013-02-22 06:02:00,35.0,27.0,-100.00,NW,323,7.0,15.0,72,0.00,,,0.12,0.000000,,2013-02-22 12:02:00,
2013-02-22 06:32:00,33.0,25.0,-100.00,NNW,338,8.0,13.0,71,0.00,,,-99.99,0.000000,,2013-02-22 12:32:00,
2013-02-22 06:42:00,33.0,25.0,-100.00,NNW,338,8.0,13.0,71,0.00,,,-99.99,0.000000,,2013-02-22 12:42:00,
2013-02-22 06:52:00,33.0,25.0,-100.00,NNW,338,8.0,13.0,71,0.00,,,-99.99,0.000000,,2013-02-22 12:52:00,
2013-02-22 07:01:00,33.0,25.0,-100.00,NNW,338,8.0,13.0,71,0.00,,,-99.99,0.000000,,2013-02-22 13:01:00,
2013-02-22 07:32:00,32.0,24.0,-100.00,NNW,339,8.0,16.0,72,0.00,,,-99.99,1.000000,,2013-02-22 13:32:00,
2013-02-22 07:42:00,32.0,24.0,-100.00,NNW,339,8.0,16.0,72,0.00,,,-99.99,1.000000,,2013-02-22 13:42:00,
2013-02-22 07:52:00,32.0,24.0,-100.00,NNW,339,8.0,16.0,72,0.00,,,-99.99,1.000000,,2013-02-22 13:52:00,
2013-02-22 08:01:00,32.0,24.0,-100.00,NNW,339,8.0,16.0,72,0.00,,,-99.99,1.000000,,2013-02-22 14:01:00,
2013-02-22 08:32:00,33.0,24.0,-100.00,North,359,5.0,12.0,70,0.00,,,0.12,51.000000,,2013-02-22 14:32:00,
2013-02-22 08:42:00,33.0,24.0,-100.00,North,359,5.0,12.0,70,0.00,,,0.12,51.000000,,2013-02-22 14:42:00,
2013-02-22 08:53:00,33.0,24.0,-100.00,North,359,5.0,12.0,70,0.00,,,0.12,51.000000,,2013-02-22 14:53:00,
2013-02-22 09:01:00,33.0,24.0,-100.00,North,359,5.0,12.0,70,0.00,,,0.12,51.000000,,2013-02-22 15:01:00,
2013-02-22 09:32:00,35.0,24.0,-100.00,North,352,7.0,12.0,64,0.00,,,0.00,178.000000,,2013-02-22 15:32:00,
2013-02-22 09:42:00,35.0,24.0,-100.00,North,352,7.0,12.0,64,0.00,,,0.00,178.000000,,2013-02-22 15:42:00,
2013-02-22 09:52:00,35.0,24.0,-100.00,North,352,7.0,12.0,64,0.00,,,0.00,178.000000,,2013-02-22 15:52:00,
2013-02-22 10:01:00,35.0,24.0,-100.00,North,352,7.0,12.0,64,0.00,,,0.00,178.000000,,2013-02-22 16:01:00,
2013-02-22 10:32:00,36.0,23.0,-100.00,NNW,347,8.0,14.0,59,0.00,,,0.00,297.000000,,2013-02-22 16:32:00,
2013-02-22 10:42:00,36.0,23.0,-100.00,NNW,347,8.0,14.0,59,0.00,,,0.00,297.000000,,2013-02-22 16:42:00,
2013-02-22 10:52:00,36.0,23.0,-100.00,NNW,347,8.0,14.0,59,0.00,,,0.00,297.000000,,2013-02-22 16:52:00,
2013-02-22 11:01:00,36.0,23.0,-100.00,NNW,347,8.0,14.0,59,0.00,,,0.00,297.000000,,2013-02-22 17:01:00,
2013-02-22 11:32:00,38.0,24.0,-100.00,NNW,345,8.0,15.0,56,0.00,,,0.00,382.000000,,2013-02-22 17:32:00,
2013-02-22 11:42:00,38.0,24.0,-100.00,NNW,345,8.0,15.0,56,0.00,,,0.00,382.000000,,2013-02-22 17:42:00,
2013-02-22 11:52:00,38.0,24.0,-100.00,NNW,345,8.0,15.0,56,0.00,,,0.00,382.000000,,2013-02-22 17:52:00,
2013-02-22 12:01:00,38.0,24.0,-100.00,NNW,345,8.0,15.0,56,0.00,,,0.00,382.000000,,2013-02-22 18:01:00,
2013-02-22 12:32:00,40.0,23.0,-100.00,NNW,346,8.0,14.0,51,0.00,,,-99.99,494.000000,,2013-02-22 18:32:00,
2013-02-22 12:42:00,40.0,23.0,-100.00,NNW,346,8.0,14.0,51,0.00,,,-99.99,494.000000,,2013-02-22 18:42:00,
2013-02-22 12:52:00,40.0,23.0,-100.00,NNW,346,8.0,14.0,51,0.00,,,-99.99,494.000000,,2013-02-22 18:52:00,
2013-02-22 13:01:00,40.0,23.0,-100.00,NNW,346,8.0,14.0,51,0.00,,,-99.99,494.000000,,2013-02-22 19:01:00,
2013-02-22 13:31:00,42.0,23.0,-100.00,North,351,8.0,14.0,47,0.00,,,0.00,550.000000,,2013-02-22 19:31:00,
2013-02-22 13:42:00,42.0,23.0,-100.00,North,351,8.0,14.0,47,0.00,,,0.00,550.000000,,2013-02-22 19:42:00,
2013-02-22 13:52:00,42.0,23.0,-100.00,North,351,8.0,14.0,47,0.00,,,0.00,550.000000,,2013-02-22 19:52:00,
2013-02-22 14:01:00,42.0,23.0,-100.00,North,351,8.0,14.0,47,0.00,,,0.00,550.000000,,2013-02-22 20:01:00,
2013-02-22 14:32:00,45.0,23.0,-100.00,North,358,8.0,14.0,42,0.00,,,0.00,750.000000,,2013-02-22 20:32:00,
2013-02-22 14:42:00,45.0,23.0,-100.00,North,358,8.0,14.0,42,0.00,,,0.00,750.000000,,2013-02-22 20:42:00,
2013-02-22 14:52:00,45.0,23.0,-100.00,North,358,8.0,14.0,42,0.00,,,0.00,750.000000,,2013-02-22 20:52:00,
2013-02-22 15:01:00,45.0,23.0,-100.00,North,358,8.0,14.0,42,0.00,,,0.00,750.000000,,2013-02-22 21:01:00,
2013-02-22 15:32:00,47.0,25.0,-100.00,NNE,21,8.0,14.0,41,0.00,,,0.00,570.000000,,2013-02-22 21:32:00,
2013-02-22 15:42:00,47.0,25.0,-100.00,NNE,21,8.0,14.0,41,0.00,,,0.00,570.000000,,2013-02-22 21:42:00,
2013-02-22 15:52:00,47.0,25.0,-100.00,NNE,21,8.0,14.0,41,0.00,,,0.00,570.000000,,2013-02-22 21:52:00,
2013-02-22 16:01:00,47.0,25.0,-100.00,NNE,21,8.0,14.0,41,0.00,,,0.00,570.000000,,2013-02-22 22:01:00,
2013-02-22 16:32:00,47.0,25.0,-100.00,NNE,24,7.0,14.0,41,0.00,,,0.00,452.000000,,2013-02-22 22:32:00,
2013-02-22 16:42:00,47.0,25.0,-100.00,NNE,24,7.0,14.0,41,0.00,,,0.00,452.000000,,2013-02-22 22:42:00,
2013-02-22 16:52:00,47.0,25.0,-100.00,NNE,24,7.0,14.0,41,0.00,,,0.00,452.000000,,2013-02-22 22:52:00,
2013-02-22 17:01:00,47.0,25.0,-100.00,NNE,24,7.0,14.0,41,0.00,,,0.00,452.000000,,2013-02-22 23:01:00,
2013-02-22 17:32:00,47.0,23.0,-100.00,NE,46,7.0,12.0,39,0.00,,,0.00,369.000000,,2013-02-22 23:32:00,
2013-02-22 17:42:00,47.0,23.0,-100.00,NE,46,7.0,12.0,39,0.00,,,0.00,369.000000,,2013-02-22 23:42:00,
2013-02-22 17:52:00,47.0,23.0,-100.00,NE,46,7.0,12.0,39,0.00,,,0.00,369.000000,,2013-02-22 23:52:00,
2013-02-22 18:01:00,47.0,23.0,-100.00,NE,46,7.0,12.0,39,0.00,,,0.00,369.000000,,2013-02-23 00:01:00,
2013-02-22 18:32:00,46.0,25.0,-100.00,North,6,5.0,10.0,43,0.00,,,0.00,105.000000,,2013-02-23 00:32:00,
2013-02-22 18:42:00,46.0,25.0,-100.00,North,6,5.0,10.0,43,0.00,,,0.00,105.000000,,2013-02-23 00:42:00,
2013-02-22 18:52:00,46.0,25.0,-100.00,North,6,5.0,10.0,43,0.00,,,0.00,105.000000,,2013-02-23 00:52:00,
2013-02-22 19:01:00,46.0,25.0,-100.00,North,6,5.0,10.0,43,0.00,,,0.00,105.000000,,2013-02-23 01:01:00,
2013-02-22 19:32:00,44.0,26.0,-100.00,NE,42,2.0,9.0,48,0.00,,,-99.99,6.000000,,2013-02-23 01:32:00,
2013-02-22 19:42:00,44.0,26.0,-100.00,NE,42,2.0,9.0,48,0.00,,,-99.99,6.000000,,2013-02-23 01:42:00,
2013-02-22 19:52:00,44.0,26.0,-100.00,NE,42,2.0,9.0,48,0.00,,,-99.99,6.000000,,2013-02-23 01:52:00,
2013-02-22 20:01:00,44.0,26.0,-100.00,NE,42,2.0,9.0,48,0.00,,,-99.99,6.000000,,2013-02-23 02:01:00,
2013-02-22 20:32:00,42.0,27.0,-100.00,NNE,32,3.0,8.0,54,0.00,,,0.00,0.000000,,2013-02-23 02:32:00,
2013-02-22 20:42:00,42.0,27.0,-100.00,NNE,32,3.0,8.0,54,0.00,,,0.00,0.000000,,2013-02-23 02:42:00,
2013-02-22 20:52:00,42.0,27.0,-100.00,NNE,32,3.0,8.0,54,0.00,,,0.00,0.000000,,2013-02-23 02:52:00,
2013-02-22 21:01:00,42.0,27.0,-100.00,NNE,32,3.0,8.0,54,0.00,,,0.00,0.000000,,2013-02-23 03:01:00,
2013-02-22 21:32:00,38.0,25.0,-100.00,ENE,69,3.0,6.0,58,0.00,,,0.00,0.000000,,2013-02-23 03:32:00,
2013-02-22 21:42:00,38.0,25.0,-100.00,ENE,69,3.0,6.0,58,0.00,,,0.00,0.000000,,2013-02-23 03:42:00,
2013-02-22 21:52:00,38.0,25.0,-100.00,ENE,69,3.0,6.0,58,0.00,,,0.00,0.000000,,2013-02-23 03:52:00,
2013-02-22 22:01:00,38.0,25.0,-100.00,ENE,69,3.0,6.0,58,0.00,,,0.00,0.000000,,2013-02-23 04:01:00,
2013-02-22 22:32:00,39.0,26.0,-100.00,NE,56,3.0,6.0,59,0.00,,,0.00,0.000000,,2013-02-23 04:32:00,
2013-02-22 22:42:00,39.0,26.0,-100.00,NE,56,3.0,6.0,59,0.00,,,0.00,0.000000,,2013-02-23 04:42:00,
2013-02-22 22:52:00,39.0,26.0,-100.00,NE,56,3.0,6.0,59,0.00,,,0.00,0.000000,,2013-02-23 04:52:00,
2013-02-22 23:02:00,39.0,26.0,-100.00,NE,56,3.0,6.0,59,0.00,,,0.00,0.000000,,2013-02-23 05:02:00,
2013-02-22 23:33:00,38.0,26.0,-100.00,NE,35,4.0,5.0,62,0.00,,,0.00,0.000000,,2013-02-23 05:33:00,
2013-02-22 23:42:00,38.0,26.0,-100.00,NE,35,4.0,5.0,62,0.00,,,0.00,0.000000,,2013-02-23 05:42:00,
2013-02-22 23:52:00,38.0,26.0,-100.00,NE,35,4.0,5.0,62,0.00,,,0.00,0.000000,,2013-02-23 05:52:00,